Time;durP1;ratioP1;P1;durP2;ratioP2;P2;SDS_P1;SDS_P2;PMS_P1;PMS_P2;Temp;Humidity;BMP_temperature;BMP_pressure;BME280_temperature;BME280_humidity;BME280_pressure;Samples;Min_cycle;Max_cycle;Signal;HPM_P1;HPM_P2
2021/03/04 00:04:08;;;;;;;25.65;13.07;;;7.20;48.00;;;;;;4861759;29;20114;-87
2021/03/04 00:09:56;;;;;;;24.13;13.15;;;7.20;48.00;;;;;;4861766;29;20153;-87
2021/03/04 00:15:45;;;;;;;25.60;12.65;;;7.20;48.00;;;;;;4861650;29;20105;-87
2021/03/04 00:21:34;;;;;;;25.20;12.18;;;7.20;48.30;;;;;;4861796;29;20048;-88
2021/03/04 00:27:22;;;;;;;21.23;11.35;;;7.20;48.30;;;;;;4865434;29;20041;-87
2021/03/04 00:33:10;;;;;;;23.65;12.88;;;7.30;48.40;;;;;;4865574;29;20451;-87
2021/03/04 00:39:00;;;;;;;20.42;11.88;;;7.20;48.40;;;;;;4865523;29;20398;-88
2021/03/04 00:44:48;;;;;;;20.70;10.07;;;7.20;48.40;;;;;;4864982;29;20145;-88
2021/03/04 00:50:39;;;;;;;21.25;10.80;;;7.20;48.50;;;;;;4865240;29;20044;-87
2021/03/04 00:56:27;;;;;;;22.70;10.93;;;7.20;48.70;;;;;;4865017;29;20627;-87
2021/03/04 01:06:10;;;;;;;21.15;11.38;;;7.30;48.80;;;;;;4864910;29;20060;-87
2021/03/04 01:11:59;;;;;;;22.92;11.63;;;7.30;48.90;;;;;;4864521;29;20078;-87
2021/03/04 01:17:48;;;;;;;21.40;11.10;;;7.30;48.90;;;;;;4864337;29;20045;-87
2021/03/04 01:23:36;;;;;;;24.42;12.20;;;7.30;48.90;;;;;;4864136;29;20041;-87
2021/03/04 01:29:25;;;;;;;22.50;10.88;;;7.40;49.00;;;;;;4864334;29;20492;-87
2021/03/04 01:35:13;;;;;;;22.10;11.93;;;7.30;48.90;;;;;;4862945;29;20047;-88
2021/03/04 01:41:02;;;;;;;25.73;11.35;;;7.30;49.00;;;;;;4864245;29;20032;-89
2021/03/04 01:46:51;;;;;;;22.92;11.85;;;7.20;49.00;;;;;;4867380;29;20040;-90
2021/03/04 01:52:40;;;;;;;21.95;12.07;;;7.30;49.20;;;;;;4865544;29;20048;-89
2021/03/04 01:58:28;;;;;;;20.48;10.80;;;7.30;49.20;;;;;;4864137;29;20033;-89
2021/03/04 02:08:24;;;;;;;19.77;11.52;;;7.20;49.10;;;;;;4864089;29;20526;-89
2021/03/04 02:14:17;;;;;;;19.75;10.50;;;7.20;49.20;;;;;;4863504;29;20398;-88
2021/03/04 02:20:10;;;;;;;21.92;11.45;;;7.20;49.40;;;;;;4863404;29;20037;-88
2021/03/04 02:26:33;;;;;;;20.42;10.60;;;7.20;49.50;;;;;;4863658;29;20060;-88
2021/03/04 02:32:26;;;;;;;23.35;11.07;;;7.20;49.50;;;;;;4863490;29;20078;-88
2021/03/04 02:38:19;;;;;;;21.52;10.70;;;7.20;49.50;;;;;;4863184;29;20085;-88
2021/03/04 02:44:09;;;;;;;19.75;10.05;;;7.20;49.50;;;;;;4862881;29;20102;-87
2021/03/04 02:49:59;;;;;;;18.30;10.60;;;7.10;49.70;;;;;;4862761;29;20029;-88
2021/03/04 02:55:48;;;;;;;22.63;12.20;;;7.20;49.70;;;;;;4863490;29;20044;-87
2021/03/04 03:01:39;;;;;;;20.42;11.10;;;7.10;49.70;;;;;;4863907;29;20053;-86
2021/03/04 03:11:31;;;;;;;22.15;11.88;;;6.90;49.60;;;;;;4862506;29;20040;-88
2021/03/04 03:17:19;;;;;;;21.00;11.15;;;7.00;49.90;;;;;;4862450;29;20036;-89
2021/03/04 03:23:07;;;;;;;19.13;10.73;;;7.00;49.90;;;;;;4862466;29;20056;-86
2021/03/04 03:28:56;;;;;;;21.33;10.80;;;6.90;50.00;;;;;;4862358;29;20032;-87
2021/03/04 03:34:45;;;;;;;19.63;9.82;;;6.90;50.10;;;;;;4862089;29;20082;-87
2021/03/04 03:40:37;;;;;;;20.77;11.45;;;6.90;50.10;;;;;;4861864;29;20410;-86
2021/03/04 03:46:27;;;;;;;25.77;11.70;;;6.90;50.20;;;;;;4862042;29;20428;-86
2021/03/04 03:52:15;;;;;;;21.92;11.07;;;6.90;50.20;;;;;;4861825;29;20554;-86
2021/03/04 03:58:04;;;;;;;21.02;10.38;;;6.90;50.20;;;;;;4861023;29;20519;-87
2021/03/04 04:03:58;;;;;;;17.70;9.75;;;6.90;50.40;;;;;;4861750;29;20410;-88
2021/03/04 04:13:47;;;;;;;23.17;10.82;;;6.90;50.30;;;;;;4862026;29;20048;-87
2021/03/04 04:19:36;;;;;;;20.20;11.38;;;6.80;50.40;;;;;;4862188;29;20076;-87
2021/03/04 04:25:26;;;;;;;20.55;10.90;;;6.80;50.40;;;;;;4861519;29;20512;-87
2021/03/04 04:31:15;;;;;;;19.95;10.98;;;6.80;50.40;;;;;;4861385;29;20044;-87
2021/03/04 04:37:03;;;;;;;22.92;10.63;;;6.70;50.50;;;;;;4861531;29;20121;-86
2021/03/04 04:42:52;;;;;;;22.88;11.27;;;6.70;50.50;;;;;;4861467;29;20044;-85
2021/03/04 04:48:40;;;;;;;23.08;10.68;;;6.60;50.40;;;;;;4861345;29;20044;-86
2021/03/04 04:54:29;;;;;;;19.05;10.75;;;6.50;50.40;;;;;;4861053;29;20124;-87
2021/03/04 05:00:18;;;;;;;20.23;11.30;;;6.50;50.50;;;;;;4860986;29;20036;-86
2021/03/04 05:06:07;;;;;;;28.17;11.38;;;6.50;50.60;;;;;;4861134;29;20056;-87
2021/03/04 05:15:50;;;;;;;22.55;11.38;;;6.40;50.60;;;;;;4864756;29;20148;-86
2021/03/04 05:21:39;;;;;;;22.60;12.05;;;6.40;50.70;;;;;;4864601;29;20044;-86
2021/03/04 05:27:27;;;;;;;23.75;11.55;;;6.30;50.60;;;;;;4864427;29;20072;-88
2021/03/04 05:33:16;;;;;;;23.30;11.05;;;6.30;50.70;;;;;;4864525;29;20121;-88
2021/03/04 05:39:05;;;;;;;27.02;12.07;;;6.20;50.70;;;;;;4864405;29;20044;-88
2021/03/04 05:44:54;;;;;;;28.38;12.30;;;6.00;50.50;;;;;;4864192;29;20052;-87
2021/03/04 05:50:49;;;;;;;21.52;10.13;;;5.90;50.70;;;;;;4864056;29;20050;-87
2021/03/04 05:56:41;;;;;;;20.40;10.95;;;5.90;50.80;;;;;;4864105;29;20390;-87
2021/03/04 06:02:29;;;;;;;23.42;11.57;;;5.80;50.80;;;;;;4863876;29;20040;-85
2021/03/04 06:08:17;;;;;;;19.77;10.63;;;5.80;50.90;;;;;;4863725;29;20045;-85
2021/03/04 06:18:00;;;;;;;24.88;11.40;;;5.80;51.20;;;;;;4864160;29;20451;-84
2021/03/04 06:23:49;;;;;;;23.55;11.95;;;5.90;51.50;;;;;;4863597;29;20055;-85
2021/03/04 06:29:38;;;;;;;22.63;11.05;;;6.00;51.60;;;;;;4863687;29;20028;-85
2021/03/04 06:35:35;;;;;;;19.25;10.93;;;6.20;51.70;;;;;;4864033;29;20101;-85
2021/03/04 06:41:24;;;;;;;23.92;10.85;;;6.30;51.40;;;;;;4864507;29;20125;-87
2021/03/04 06:47:20;;;;;;;22.88;12.32;;;6.40;51.60;;;;;;4866145;29;20040;-86
2021/03/04 06:53:15;;;;;;;23.98;11.80;;;6.50;51.90;;;;;;4863118;29;20036;-87
2021/03/04 06:59:05;;;;;;;22.52;11.38;;;6.50;51.60;;;;;;4862842;29;20497;-87
2021/03/04 07:04:56;;;;;;;23.40;11.23;;;6.60;51.80;;;;;;4862657;29;20057;-86
2021/03/04 07:10:45;;;;;;;21.42;12.05;;;6.70;52.20;;;;;;4862797;29;20086;-82
2021/03/04 07:20:35;;;;;;;26.30;11.55;;;7.10;52.40;;;;;;4863369;29;20069;-84
2021/03/04 07:26:23;;;;;;;20.98;11.85;;;7.30;52.50;;;;;;4862253;29;20076;-84
2021/03/04 07:32:14;;;;;;;23.95;11.77;;;7.40;52.50;;;;;;4862143;29;20093;-83
2021/03/04 07:38:03;;;;;;;20.65;11.43;;;7.70;52.80;;;;;;4862122;29;20067;-84
2021/03/04 07:43:54;;;;;;;23.75;11.55;;;7.90;52.70;;;;;;4861928;29;20414;-85
2021/03/04 07:49:45;;;;;;;22.10;11.63;;;8.00;52.70;;;;;;4861638;29;20039;-86
2021/03/04 07:55:38;;;;;;;19.20;10.45;;;8.20;52.80;;;;;;4861644;29;20398;-85
2021/03/04 08:01:27;;;;;;;24.38;9.65;;;8.30;52.90;;;;;;4861532;29;20040;-86
2021/03/04 08:07:29;;;;;;;23.20;10.57;;;8.50;53.00;;;;;;4861630;29;20036;-85
2021/03/04 08:13:18;;;;;;;20.88;8.77;;;8.70;53.00;;;;;;4861315;29;20033;-85
2021/03/04 08:23:10;;;;;;;16.13;7.95;;;9.00;53.30;;;;;;4861521;29;20052;-85
2021/03/04 08:29:11;;;;;;;15.25;7.38;;;9.30;53.40;;;;;;4861567;29;20061;-89
2021/03/04 08:35:00;;;;;;;14.77;7.70;;;9.60;53.60;;;;;;4861400;29;20043;-83
2021/03/04 08:40:59;;;;;;;14.27;5.85;;;10.00;53.60;;;;;;4861210;29;20054;-85
2021/03/04 08:46:50;;;;;;;14.98;6.28;;;10.30;53.50;;;;;;4864848;29;20048;-86
2021/03/04 08:52:41;;;;;;;14.43;6.72;;;10.60;53.50;;;;;;4865638;29;20032;-84
2021/03/04 08:58:33;;;;;;;12.57;6.15;;;10.80;53.40;;;;;;4864883;29;20041;-84
2021/03/04 09:04:23;;;;;;;16.48;7.47;;;11.10;53.60;;;;;;4864533;29;20064;-86
2021/03/04 09:10:13;;;;;;;17.75;6.88;;;11.50;53.70;;;;;;4865261;29;20093;-88
2021/03/04 09:16:06;;;;;;;15.02;6.18;;;11.90;53.80;;;;;;4864844;29;20112;-89
2021/03/04 09:25:58;;;;;;;7.78;3.70;;;12.50;53.60;;;;;;4865063;29;20475;-90
2021/03/04 09:31:52;;;;;;;6.25;2.45;;;12.80;53.30;;;;;;4864412;29;20040;-88
2021/03/04 09:37:41;;;;;;;16.83;5.85;;;13.30;54.10;;;;;;4864326;29;20037;-88
2021/03/04 09:43:42;;;;;;;12.55;5.32;;;14.10;54.10;;;;;;4864693;29;20133;-91
2021/03/04 09:49:33;;;;;;;15.35;6.00;;;14.60;53.30;;;;;;4864344;29;20039;-88
2021/03/04 09:55:21;;;;;;;9.85;4.47;;;14.80;52.90;;;;;;4863818;29;20049;-90
2021/03/04 10:01:10;;;;;;;13.50;5.32;;;14.70;52.50;;;;;;4864227;29;20037;-89
2021/03/04 10:06:58;;;;;;;10.23;4.88;;;15.00;52.80;;;;;;4865268;29;20398;-92
2021/03/04 10:12:56;;;;;;;13.75;6.22;;;15.30;52.60;;;;;;4865222;29;20048;-92
2021/03/04 10:18:48;;;;;;;13.57;6.15;;;15.20;51.40;;;;;;4864515;29;20113;-92
2021/03/04 10:28:42;;;;;;;10.65;4.45;;;15.60;52.80;;;;;;4864549;29;20098;-90
2021/03/04 10:34:31;;;;;;;10.88;5.80;;;16.10;52.50;;;;;;4863518;29;20530;-87
2021/03/04 10:40:21;;;;;;;14.55;5.75;;;16.80;53.70;;;;;;4863624;29;20029;-85
2021/03/04 10:46:10;;;;;;;21.05;6.50;;;17.10;51.70;;;;;;4863536;29;20451;-85
2021/03/04 10:51:58;;;;;;;14.27;6.30;;;16.70;53.20;;;;;;4865589;29;20044;-91
2021/03/04 10:57:50;;;;;;;14.05;5.85;;;17.80;54.40;;;;;;4867647;29;20120;-95
2021/03/04 11:03:39;;;;;;;12.95;6.00;;;18.60;54.50;;;;;;4864290;29;20040;-88
2021/03/04 11:09:28;;;;;;;8.85;3.83;;;19.20;54.60;;;;;;4864886;29;20391;-93
2021/03/04 11:15:16;;;;;;;15.48;6.30;;;19.60;53.30;;;;;;4875626;29;20086;-94
2021/03/04 11:21:04;;;;;;;13.77;5.72;;;20.00;53.80;;;;;;4865493;29;20123;-94
2021/03/04 11:30:55;;;;;;;13.57;5.63;;;20.40;51.50;;;;;;4866505;29;20052;-92
2021/03/04 11:36:44;;;;;;;7.10;3.47;;;19.60;49.70;;;;;;4864475;29;20085;-91
2021/03/04 11:42:33;;;;;;;14.23;6.47;;;19.30;50.70;;;;;;4864214;29;20066;-91
2021/03/04 11:48:22;;;;;;;14.00;5.80;;;19.70;50.80;;;;;;4862972;29;20045;-91
2021/03/04 11:54:10;;;;;;;14.68;6.22;;;19.40;48.80;;;;;;4862797;29;20067;-91
2021/03/04 11:59:59;;;;;;;12.43;5.80;;;19.00;48.80;;;;;;4862428;29;20390;-91
2021/03/04 12:05:47;;;;;;;17.88;8.25;;;19.70;50.60;;;;;;4862525;29;20082;-93
2021/03/04 12:11:35;;;;;;;11.90;6.50;;;19.90;48.00;;;;;;4863372;29;20178;-92
2021/03/04 12:17:24;;;;;;;17.17;7.57;;;19.70;48.00;;;;;;4862389;29;20039;-90
2021/03/04 12:23:12;;;;;;;17.00;7.28;;;20.10;48.90;;;;;;4862739;29;20434;-93
2021/03/04 12:32:54;;;;;;;21.20;8.13;;;20.50;47.80;;;;;;4862119;29;20054;-91
2021/03/04 12:38:43;;;;;;;14.38;7.90;;;21.20;48.30;;;;;;4866918;29;20105;-94
2021/03/04 12:44:30;;;;;;;13.50;5.75;;;21.80;48.60;;;;;;4869298;29;20045;-95
2021/03/04 12:50:20;;;;;;;13.65;6.95;;;21.80;46.90;;;;;;4866046;29;20033;-93
2021/03/04 12:56:08;;;;;;;18.30;9.43;;;21.30;45.50;;;;;;4863571;29;20070;-94
2021/03/04 13:01:56;;;;;;;15.63;6.75;;;21.90;46.80;;;;;;4864031;29;20040;-94
2021/03/04 13:07:45;;;;;;;15.90;8.23;;;22.40;46.30;;;;;;4861679;29;20040;-87
2021/03/04 13:13:33;;;;;;;17.02;7.32;;;22.80;46.70;;;;;;4861963;29;20041;-88
2021/03/04 13:19:22;;;;;;;11.35;4.85;;;22.60;45.60;;;;;;4861953;29;20390;-91
2021/03/04 13:25:11;;;;;;;7.18;3.40;;;23.20;46.30;;;;;;4861345;29;20052;-91
2021/03/04 13:34:53;;;;;;;15.90;7.28;;;22.90;44.40;;;;;;4864601;29;20048;-88
2021/03/04 13:40:44;;;;;;;9.43;5.03;;;23.40;44.90;;;;;;4864498;29;20534;-88
2021/03/04 13:46:33;;;;;;;14.43;6.00;;;23.20;42.80;;;;;;4864373;29;20060;-89
2021/03/04 13:52:21;;;;;;;7.28;3.40;;;22.90;42.20;;;;;;4864337;29;20044;-89
2021/03/04 13:58:11;;;;;;;14.95;7.22;;;21.90;41.30;;;;;;4864194;29;20025;-89
2021/03/04 14:03:59;;;;;;;14.98;7.55;;;21.70;42.10;;;;;;4864369;29;20097;-91
2021/03/04 14:09:49;;;;;;;13.13;6.05;;;22.20;41.00;;;;;;4865389;29;20117;-95
2021/03/04 14:15:39;;;;;;;13.52;4.75;;;21.40;39.50;;;;;;4864056;29;20121;-87
2021/03/04 14:21:28;;;;;;;17.60;8.57;;;20.90;39.40;;;;;;4863224;29;20457;-85
2021/03/04 14:27:16;;;;;;;15.80;7.70;;;21.40;40.90;;;;;;4863241;29;20052;-83
2021/03/04 14:36:59;;;;;;;13.65;5.75;;;21.40;38.40;;;;;;4863534;29;20048;-83
2021/03/04 14:42:46;;;;;;;14.32;6.35;;;20.50;37.10;;;;;;4862872;29;20086;-83
2021/03/04 14:48:35;;;;;;;10.38;4.10;;;19.70;37.50;;;;;;4862925;29;20044;-82
2021/03/04 14:54:24;;;;;;;7.80;3.33;;;19.20;37.50;;;;;;4862625;29;20089;-82
2021/03/04 15:00:14;;;;;;;11.07;4.40;;;19.00;37.80;;;;;;4862761;29;20574;-83
2021/03/04 15:06:07;;;;;;;13.13;3.95;;;19.00;37.80;;;;;;4862619;29;20060;-82
2021/03/04 15:11:59;;;;;;;6.90;3.03;;;18.60;36.90;;;;;;4862732;29;20435;-82
2021/03/04 15:17:49;;;;;;;9.82;3.95;;;18.40;37.30;;;;;;4862456;29;20048;-83
2021/03/04 15:23:38;;;;;;;12.57;4.65;;;19.60;39.60;;;;;;4862086;29;20072;-82
2021/03/04 15:29:27;;;;;;;13.38;4.05;;;20.40;38.50;;;;;;4862297;29;20040;-83
2021/03/04 15:39:11;;;;;;;14.75;4.03;;;20.40;36.80;;;;;;4862587;29;20523;-88
2021/03/04 15:44:59;;;;;;;12.07;3.60;;;20.20;37.50;;;;;;4861853;29;20447;-88
2021/03/04 15:50:48;;;;;;;10.00;3.40;;;20.10;36.80;;;;;;4862059;29;20045;-87
2021/03/04 15:56:36;;;;;;;12.20;3.60;;;19.30;34.70;;;;;;4862145;29;20035;-87
2021/03/04 16:02:25;;;;;;;16.33;5.50;;;18.10;35.10;;;;;;4861588;29;20036;-88
2021/03/04 16:08:13;;;;;;;7.10;3.13;;;17.40;35.40;;;;;;4861624;29;20598;-90
2021/03/04 16:14:01;;;;;;;10.25;3.42;;;16.90;35.40;;;;;;4861657;29;20390;-88
2021/03/04 16:19:50;;;;;;;10.23;3.35;;;16.50;35.60;;;;;;4861684;29;20040;-88
2021/03/04 16:25:38;;;;;;;10.65;3.53;;;16.20;35.70;;;;;;4861386;29;20093;-88
2021/03/04 16:31:28;;;;;;;14.82;3.47;;;15.90;35.70;;;;;;4861804;29;20458;-88
2021/03/04 16:41:11;;;;;;;11.93;3.78;;;15.50;35.90;;;;;;4862313;29;20134;-88
2021/03/04 16:46:59;;;;;;;17.55;6.03;;;15.40;36.00;;;;;;4861486;29;20482;-89
2021/03/04 16:52:48;;;;;;;14.88;4.15;;;15.20;35.90;;;;;;4862209;29;20040;-83
2021/03/04 16:58:37;;;;;;;5.85;2.28;;;15.10;36.00;;;;;;4861131;29;20089;-83
2021/03/04 17:04:25;;;;;;;12.70;3.95;;;14.90;36.10;;;;;;4860842;29;20049;-84
2021/03/04 17:10:17;;;;;;;20.25;3.92;;;14.70;36.20;;;;;;4864480;29;20398;-84
2021/03/04 17:16:05;;;;;;;14.23;5.00;;;14.50;36.30;;;;;;4864584;29;20044;-84
2021/03/04 17:21:54;;;;;;;19.10;5.32;;;14.40;36.70;;;;;;4864486;29;20072;-83
2021/03/04 17:27:42;;;;;;;14.15;4.72;;;14.30;37.00;;;;;;4864370;29;20060;-83
2021/03/04 17:33:31;;;;;;;9.95;2.72;;;14.30;37.20;;;;;;4864277;29;20044;-83
2021/03/04 17:43:15;;;;;;;8.80;3.38;;;14.10;37.20;;;;;;4864176;29;20626;-83
2021/03/04 17:49:08;;;;;;;13.63;4.95;;;14.00;37.60;;;;;;4864081;29;20538;-83
2021/03/04 17:54:56;;;;;;;11.60;4.80;;;13.80;37.60;;;;;;4863942;29;20028;-83
2021/03/04 18:00:45;;;;;;;14.27;5.70;;;13.50;37.90;;;;;;4863953;29;20076;-83
2021/03/04 18:06:33;;;;;;;11.73;5.70;;;13.30;38.10;;;;;;4863517;29;20056;-83
2021/03/04 18:12:22;;;;;;;11.85;5.20;;;13.20;38.10;;;;;;4863711;29;20032;-82
2021/03/04 18:18:11;;;;;;;12.82;6.00;;;13.10;38.60;;;;;;4863189;29;20391;-86
2021/03/04 18:24:00;;;;;;;10.30;4.72;;;13.00;38.70;;;;;;4864393;29;20125;-86
2021/03/04 18:29:48;;;;;;;10.07;4.15;;;12.80;38.60;;;;;;4863359;29;20497;-86
2021/03/04 18:35:37;;;;;;;11.63;5.07;;;12.70;38.90;;;;;;4863266;29;20590;-86
2021/03/04 18:45:21;;;;;;;14.20;5.18;;;12.40;39.00;;;;;;4862759;29;20090;-86
2021/03/04 18:51:10;;;;;;;11.55;5.57;;;12.40;39.40;;;;;;4862990;29;20502;-87
2021/03/04 18:56:58;;;;;;;13.05;5.50;;;12.40;39.60;;;;;;4862912;29;20565;-88
2021/03/04 19:02:48;;;;;;;15.02;5.60;;;12.30;39.40;;;;;;4865200;29;20044;-87
2021/03/04 19:08:36;;;;;;;11.82;5.00;;;12.00;39.10;;;;;;4862704;29;20040;-88
2021/03/04 19:14:24;;;;;;;10.07;4.93;;;11.80;39.40;;;;;;4862971;29;20029;-88
2021/03/04 19:20:13;;;;;;;12.77;5.30;;;11.60;39.40;;;;;;4862704;29;20068;-89
2021/03/04 19:26:01;;;;;;;12.90;5.05;;;11.30;39.40;;;;;;4862869;29;20093;-89
2021/03/04 19:31:50;;;;;;;21.55;10.63;;;11.10;39.50;;;;;;4863452;29;20048;-89
2021/03/04 19:37:39;;;;;;;12.88;5.55;;;10.90;39.60;;;;;;4862617;29;20095;-90
2021/03/04 19:47:22;;;;;;;16.58;7.43;;;10.70;39.90;;;;;;4862382;29;20057;-88
2021/03/04 19:53:12;;;;;;;19.98;8.65;;;10.50;39.90;;;;;;4862189;29;20048;-87
2021/03/04 20:05:42;;;;;;;16.30;7.88;;;10.30;40.20;;;;;;4861733;29;20052;-85
2021/03/04 20:11:37;;;;;;;10.48;4.53;;;10.30;40.50;;;;;;4861522;29;20050;-87
2021/03/04 20:17:47;;;;;;;14.65;6.65;;;10.40;40.70;;;;;;4861277;29;20037;-87
2021/03/04 20:23:43;;;;;;;15.82;6.95;;;10.40;40.70;;;;;;4861268;29;20055;-86
2021/03/04 20:29:55;;;;;;;14.25;6.15;;;10.30;40.70;;;;;;4861526;29;20555;-89
2021/03/04 20:36:19;;;;;;;16.80;5.82;;;10.30;41.10;;;;;;4861694;29;20094;-85
2021/03/04 20:42:34;;;;;;;11.82;5.28;;;10.40;41.20;;;;;;4864798;29;20060;-89
2021/03/04 20:48:26;;;;;;;10.63;5.38;;;10.50;41.40;;;;;;4865140;29;20415;-86
2021/03/04 21:01:03;;;;;;;14.52;5.45;;;10.50;41.40;;;;;;4800195;29;20466;-84
2021/03/04 21:06:51;;;;;;;11.77;5.45;;;10.50;42.20;;;;;;4864832;29;20048;-87
2021/03/04 21:12:40;;;;;;;13.73;6.25;;;10.50;41.60;;;;;;4864855;29;20068;-87
2021/03/04 21:15:07;;;;;;;14.40;6.72;;;10.40;41.40;;;;;;4865766;29;20520;-86
2021/03/04 21:21:02;;;;;;;6.55;2.75;;;10.40;41.70;;;;;;4864702;29;20032;-88
2021/03/04 21:26:52;;;;;;;4.43;2.00;;;9.80;41.60;;;;;;4864489;29;20098;-87
2021/03/04 21:32:44;;;;;;;5.72;2.47;;;9.50;43.00;;;;;;4869476;29;20087;-87
2021/03/04 21:38:44;;;;;;;6.15;2.72;;;9.30;43.60;;;;;;4882938;29;20055;-87
2021/03/04 21:48:09;;;;;;;3.33;1.65;;;9.30;45.00;;;;;;4882766;29;20045;-86
2021/03/04 21:53:57;;;;;;;5.70;2.35;;;9.20;45.40;;;;;;4881938;29;20036;-86
2021/03/04 21:59:50;;;;;;;8.70;2.63;;;9.00;45.70;;;;;;4882925;29;20108;-86
2021/03/04 22:05:38;;;;;;;3.55;1.85;;;8.90;46.10;;;;;;4882822;29;20069;-86
2021/03/04 22:11:27;;;;;;;8.80;3.20;;;8.40;46.70;;;;;;4882537;29;20112;-87
2021/03/04 22:17:16;;;;;;;6.35;3.08;;;8.10;47.60;;;;;;4882175;29;20500;-86
2021/03/04 22:23:05;;;;;;;5.55;2.03;;;8.00;48.30;;;;;;4882065;29;20072;-87
2021/03/04 22:28:54;;;;;;;10.27;3.78;;;8.00;48.80;;;;;;4882064;29;20125;-86
2021/03/04 22:34:42;;;;;;;7.90;3.47;;;7.90;48.80;;;;;;4881707;29;20390;-85
2021/03/04 22:40:31;;;;;;;9.18;3.38;;;7.80;49.40;;;;;;4881563;29;20084;-84
2021/03/04 22:50:08;;;;;;;5.00;2.03;;;7.70;50.10;;;;;;4881454;29;20055;-83
2021/03/04 22:55:58;;;;;;;7.78;2.67;;;7.60;50.40;;;;;;4881438;29;20036;-84
2021/03/04 23:01:46;;;;;;;6.07;2.67;;;7.60;51.10;;;;;;4881346;29;20077;-84
2021/03/04 23:07:36;;;;;;;4.63;2.47;;;7.60;51.50;;;;;;4881252;29;20389;-84
2021/03/04 23:13:51;;;;;;;8.95;3.88;;;7.50;52.00;;;;;;4881025;29;20081;-85
2021/03/04 23:19:39;;;;;;;7.40;2.85;;;7.50;52.50;;;;;;4881140;29;20031;-85
2021/03/04 23:25:37;;;;;;;8.73;4.05;;;7.50;53.00;;;;;;4880715;29;20450;-85
2021/03/04 23:31:26;;;;;;;6.13;2.88;;;7.50;53.40;;;;;;4880602;29;20032;-84
2021/03/04 23:37:18;;;;;;;4.30;2.22;;;7.40;53.80;;;;;;4880553;29;20039;-84
2021/03/04 23:43:07;;;;;;;6.82;2.35;;;7.40;54.50;;;;;;4880381;29;20077;-84
2021/03/04 23:52:57;;;;;;;9.77;3.85;;;7.40;55.50;;;;;;4880618;29;20179;-84
2021/03/04 23:58:46;;;;;;;10.60;4.40;;;7.50;56.00;;;;;;4880609;29;20044;-85
